Time;durP1;ratioP1;P1;durP2;ratioP2;P2;SDS_P1;SDS_P2;PMS_P1;PMS_P2;Temp;Humidity;BMP_temperature;BMP_pressure;BME280_temperature;BME280_humidity;BME280_pressure;Samples;Min_cycle;Max_cycle;Signal;HPM_P1;HPM_P2
2022/05/06 00:02:15;;;;;;;9.70;7.55;;;13.50;99.90;;;;;;5048143;28;20696;-56
2022/05/06 00:04:43;;;;;;;10.50;7.60;;;13.40;99.90;;;;;;5046870;28;20450;-52
2022/05/06 00:07:11;;;;;;;10.40;8.25;;;13.40;99.90;;;;;;5048377;28;20820;-55
2022/05/06 00:09:37;;;;;;;9.27;7.45;;;13.30;99.90;;;;;;5028786;28;20601;-56
2022/05/06 00:12:02;;;;;;;10.93;7.95;;;13.30;99.90;;;;;;5032037;28;20389;-52
2022/05/06 00:14:28;;;;;;;10.82;7.88;;;13.30;99.90;;;;;;5048005;28;20843;-54
2022/05/06 00:16:53;;;;;;;9.23;7.77;;;13.20;99.90;;;;;;5029291;28;20413;-56
2022/05/06 00:19:19;;;;;;;12.03;8.13;;;13.20;99.90;;;;;;5033991;28;20381;-57
2022/05/06 00:21:45;;;;;;;11.65;8.05;;;13.20;99.90;;;;;;5052321;28;20718;-55
2022/05/06 00:24:10;;;;;;;11.13;7.77;;;13.20;99.90;;;;;;5054426;28;20390;-57
2022/05/06 00:26:36;;;;;;;10.30;7.87;;;13.10;99.90;;;;;;5036021;28;20392;-54
2022/05/06 00:29:01;;;;;;;11.20;8.10;;;13.10;99.90;;;;;;5036557;28;20432;-56
2022/05/06 00:31:27;;;;;;;13.40;8.13;;;13.10;99.90;;;;;;5035206;28;20432;-57
2022/05/06 00:33:52;;;;;;;11.13;8.27;;;13.10;99.90;;;;;;5050055;28;20381;-57
2022/05/06 00:36:18;;;;;;;9.13;7.78;;;13.00;99.90;;;;;;5030373;28;20400;-57
2022/05/06 00:38:43;;;;;;;11.47;8.17;;;13.00;99.90;;;;;;5028984;28;20420;-56
2022/05/06 00:41:09;;;;;;;10.45;8.27;;;12.90;99.90;;;;;;5047679;28;20680;-55
2022/05/06 00:43:40;;;;;;;11.57;7.83;;;12.90;99.90;;;;;;5031038;28;20389;-57
2022/05/06 00:46:11;;;;;;;12.07;8.40;;;12.90;99.90;;;;;;5031240;28;20809;-55
2022/05/06 00:48:37;;;;;;;10.65;7.85;;;12.80;99.90;;;;;;5029882;28;20478;-56
2022/05/06 00:51:04;;;;;;;13.20;8.82;;;12.80;99.90;;;;;;5032650;28;20437;-56
2022/05/06 00:53:29;;;;;;;11.80;8.67;;;12.80;99.90;;;;;;5036132;28;20573;-53
2022/05/06 00:55:56;;;;;;;12.03;9.17;;;12.80;99.90;;;;;;5035526;28;20385;-55
2022/05/06 00:58:23;;;;;;;11.52;8.27;;;12.70;99.90;;;;;;5036708;28;20724;-55
2022/05/06 01:00:49;;;;;;;11.93;8.73;;;12.70;99.90;;;;;;5035754;28;20409;-56
2022/05/06 01:03:15;;;;;;;11.13;7.70;;;12.70;99.90;;;;;;5035338;28;20389;-55
2022/05/06 01:05:40;;;;;;;10.40;8.15;;;12.60;99.90;;;;;;5052744;28;20469;-55
2022/05/06 01:08:08;;;;;;;11.68;8.73;;;12.60;99.90;;;;;;5036686;28;20748;-56
2022/05/06 01:10:37;;;;;;;10.05;8.88;;;12.50;99.90;;;;;;5036387;28;22395;-55
2022/05/06 01:13:03;;;;;;;10.50;8.60;;;12.50;99.90;;;;;;5036727;28;20381;-56
2022/05/06 01:15:29;;;;;;;13.07;9.27;;;12.50;99.90;;;;;;5037105;28;20416;-56
2022/05/06 01:17:56;;;;;;;11.05;8.88;;;12.50;99.90;;;;;;5038165;28;20396;-57
2022/05/06 01:20:23;;;;;;;15.73;8.48;;;12.50;99.90;;;;;;5055209;28;20765;-56
2022/05/06 01:22:53;;;;;;;12.93;9.10;;;12.50;99.90;;;;;;5037251;28;20455;-57
2022/05/06 01:25:20;;;;;;;10.95;8.98;;;12.50;99.90;;;;;;5038445;28;20394;-55
2022/05/06 01:28:00;;;;;;;13.90;8.98;;;12.50;99.90;;;;;;5038443;28;20882;-54
2022/05/06 01:30:44;;;;;;;14.27;8.75;;;12.50;99.90;;;;;;5056214;28;20789;-56
2022/05/06 01:33:12;;;;;;;13.85;9.40;;;12.40;99.90;;;;;;5056069;28;20405;-55
2022/05/06 01:35:43;;;;;;;11.63;8.90;;;12.40;99.90;;;;;;5039140;28;20469;-56
2022/05/06 01:38:10;;;;;;;11.23;9.13;;;12.40;99.90;;;;;;5054564;28;20385;-57
2022/05/06 01:40:42;;;;;;;12.77;9.50;;;12.30;99.90;;;;;;5036250;28;20390;-57
2022/05/06 01:43:13;;;;;;;11.40;9.10;;;12.30;99.90;;;;;;5038497;28;20381;-56
2022/05/06 01:45:39;;;;;;;13.07;9.63;;;12.20;99.90;;;;;;5038047;28;20397;-56
2022/05/06 01:48:07;;;;;;;11.77;9.07;;;12.10;99.90;;;;;;5037502;28;20584;-57
2022/05/06 01:50:37;;;;;;;11.30;8.93;;;12.10;99.90;;;;;;5038648;28;20433;-57
2022/05/06 01:53:02;;;;;;;12.65;9.35;;;12.10;99.90;;;;;;5039027;28;20492;-57
2022/05/06 01:55:28;;;;;;;12.73;9.30;;;12.10;99.90;;;;;;5038954;28;20488;-55
2022/05/06 01:57:53;;;;;;;11.97;9.70;;;12.10;99.90;;;;;;5039339;28;20386;-57
2022/05/06 02:00:19;;;;;;;12.38;9.70;;;12.10;99.90;;;;;;5056995;28;20423;-57
2022/05/06 02:02:45;;;;;;;12.55;9.15;;;12.00;99.90;;;;;;5035413;28;20406;-56
2022/05/06 02:05:19;;;;;;;14.03;9.37;;;12.00;99.90;;;;;;5036628;28;20390;-55
2022/05/06 02:07:50;;;;;;;11.70;9.38;;;11.90;99.90;;;;;;5052123;28;20468;-55
2022/05/06 02:10:20;;;;;;;13.23;9.75;;;11.90;99.90;;;;;;5035849;28;20405;-56
2022/05/06 02:12:46;;;;;;;11.90;9.68;;;11.90;99.90;;;;;;5036358;28;20377;-57
2022/05/06 02:15:13;;;;;;;13.05;9.77;;;11.90;99.90;;;;;;5037095;28;20443;-56
2022/05/06 02:17:39;;;;;;;12.95;9.90;;;11.90;99.90;;;;;;5035658;28;20381;-56
2022/05/06 02:20:07;;;;;;;14.77;10.25;;;11.80;99.90;;;;;;5036474;28;20389;-57
2022/05/06 02:22:33;;;;;;;15.82;10.70;;;11.70;99.90;;;;;;5037190;28;20673;-56
2022/05/06 02:24:59;;;;;;;13.32;10.38;;;11.70;99.90;;;;;;5053216;28;20433;-57
2022/05/06 02:27:24;;;;;;;12.70;9.90;;;11.70;99.90;;;;;;5035774;28;20432;-57
2022/05/06 02:35:18;;;;;;;13.18;10.60;;;11.60;99.90;;;;;;5055919;28;20376;-55
2022/05/06 02:37:44;;;;;;;13.60;11.05;;;11.70;99.90;;;;;;5036823;28;20385;-57
2022/05/06 02:40:11;;;;;;;13.10;10.63;;;11.70;99.90;;;;;;5053330;28;20400;-57
2022/05/06 02:42:37;;;;;;;14.37;10.87;;;11.70;99.90;;;;;;5054031;28;20478;-57
2022/05/06 02:45:03;;;;;;;14.30;11.23;;;11.70;99.90;;;;;;5036650;28;20423;-56
2022/05/06 02:47:31;;;;;;;13.43;10.95;;;11.70;99.90;;;;;;5036194;28;20801;-57
2022/05/06 02:49:57;;;;;;;14.60;11.07;;;11.60;99.90;;;;;;5031297;28;20434;-57
2022/05/06 02:52:23;;;;;;;15.32;11.48;;;11.50;99.90;;;;;;5033815;28;20387;-56
2022/05/06 02:54:49;;;;;;;14.73;11.45;;;11.50;99.90;;;;;;5032434;28;20385;-57
2022/05/06 02:57:14;;;;;;;14.88;11.32;;;11.50;99.90;;;;;;5031964;28;20726;-57
2022/05/06 02:59:41;;;;;;;13.57;10.80;;;11.50;99.90;;;;;;5031319;28;20375;-55
2022/05/06 03:02:06;;;;;;;14.38;10.95;;;11.50;99.90;;;;;;5029086;28;20406;-57
2022/05/06 03:04:32;;;;;;;17.90;12.20;;;11.50;99.90;;;;;;5030981;28;20654;-57
2022/05/06 03:06:58;;;;;;;14.43;11.55;;;11.50;99.90;;;;;;5031026;28;20422;-57
2022/05/06 03:09:24;;;;;;;15.23;11.75;;;11.40;99.90;;;;;;5031101;28;20387;-56
2022/05/06 03:11:50;;;;;;;15.15;11.02;;;11.50;99.90;;;;;;5031619;28;20433;-54
2022/05/06 03:14:15;;;;;;;16.33;12.67;;;11.50;99.90;;;;;;5031259;28;20406;-56
2022/05/06 03:16:41;;;;;;;13.67;11.50;;;11.40;99.90;;;;;;5033101;28;20411;-55
2022/05/06 03:19:06;;;;;;;14.05;11.52;;;11.40;99.90;;;;;;5031754;28;20387;-57
2022/05/06 03:21:32;;;;;;;14.67;11.77;;;11.40;99.90;;;;;;5032534;28;20402;-57
2022/05/06 03:24:02;;;;;;;15.93;12.57;;;11.40;99.90;;;;;;5031066;28;20469;-57
2022/05/06 03:26:28;;;;;;;16.45;12.18;;;11.40;99.90;;;;;;5028857;28;20417;-52
2022/05/06 03:28:57;;;;;;;16.40;12.50;;;11.40;99.90;;;;;;5030354;28;20402;-57
2022/05/06 03:31:26;;;;;;;16.98;12.07;;;11.30;99.90;;;;;;5031529;28;20921;-56
2022/05/06 03:33:54;;;;;;;15.30;12.20;;;11.30;99.90;;;;;;5030075;28;20663;-55
2022/05/06 03:36:24;;;;;;;15.85;12.68;;;11.20;99.90;;;;;;5030096;28;20386;-57
2022/05/06 03:38:49;;;;;;;15.87;12.77;;;11.20;99.90;;;;;;5029725;28;20579;-55
2022/05/06 03:41:15;;;;;;;19.17;12.97;;;11.20;99.90;;;;;;5031228;28;20486;-57
2022/05/06 03:43:40;;;;;;;17.85;13.48;;;11.20;99.90;;;;;;5032739;28;20445;-57
2022/05/06 03:46:06;;;;;;;16.70;13.37;;;11.10;99.90;;;;;;5029087;28;20477;-56
2022/05/06 03:48:33;;;;;;;16.33;13.20;;;11.10;99.90;;;;;;5029358;28;20830;-55
2022/05/06 03:53:43;;;;;;;18.23;13.55;;;11.00;99.90;;;;;;5052151;28;20438;-55
2022/05/06 03:56:08;;;;;;;19.98;15.15;;;11.00;99.90;;;;;;5052345;28;20417;-56
2022/05/06 03:58:34;;;;;;;19.30;15.23;;;11.10;99.90;;;;;;5053783;28;20380;-57
2022/05/06 04:00:59;;;;;;;18.53;14.60;;;11.00;99.90;;;;;;5051817;28;20404;-56
2022/05/06 04:03:25;;;;;;;22.40;15.95;;;11.00;99.90;;;;;;5033488;28;20421;-54
2022/05/06 04:05:52;;;;;;;22.70;16.97;;;11.00;99.90;;;;;;5032599;28;20398;-55
2022/05/06 04:08:18;;;;;;;18.92;16.55;;;10.90;99.90;;;;;;5049440;28;20382;-56
2022/05/06 04:10:44;;;;;;;23.15;17.52;;;10.90;99.90;;;;;;5050592;28;20411;-57
2022/05/06 04:13:10;;;;;;;21.27;17.90;;;10.90;99.90;;;;;;5033834;28;20716;-56
2022/05/06 04:15:36;;;;;;;23.45;18.75;;;10.90;99.90;;;;;;5032613;28;20397;-57
2022/05/06 04:18:02;;;;;;;22.30;17.27;;;10.90;99.90;;;;;;5030895;28;20386;-53
2022/05/06 04:23:30;;;;;;;24.77;18.17;;;10.90;99.90;;;;;;5046768;28;20411;-57
2022/05/06 04:26:04;;;;;;;21.25;17.17;;;10.90;99.90;;;;;;5028645;28;20416;-55
2022/05/06 04:28:31;;;;;;;21.27;17.08;;;10.90;99.90;;;;;;5029299;28;20900;-57
2022/05/06 04:30:57;;;;;;;25.25;17.33;;;10.90;99.90;;;;;;5027936;28;20507;-56
2022/05/06 04:33:26;;;;;;;22.63;17.45;;;10.90;99.90;;;;;;5048081;28;20400;-55
2022/05/06 04:35:53;;;;;;;25.63;18.08;;;10.90;99.90;;;;;;5030262;28;20792;-57
2022/05/06 04:38:20;;;;;;;22.58;17.98;;;10.90;99.90;;;;;;5030920;28;20382;-56
2022/05/06 04:40:46;;;;;;;22.83;17.67;;;10.90;99.90;;;;;;5030159;28;20744;-57
2022/05/06 04:43:12;;;;;;;22.40;18.80;;;10.80;99.90;;;;;;5029081;28;20872;-57
2022/05/06 04:45:41;;;;;;;22.45;18.08;;;10.80;99.90;;;;;;5047278;28;20439;-54
2022/05/06 04:48:08;;;;;;;24.20;18.87;;;10.80;99.90;;;;;;5026433;28;20481;-55
2022/05/06 04:50:34;;;;;;;26.57;18.50;;;10.80;99.90;;;;;;5044120;28;20428;-56
2022/05/06 04:53:01;;;;;;;26.02;19.25;;;10.80;99.90;;;;;;5028289;28;20385;-52
2022/05/06 04:55:27;;;;;;;25.20;18.83;;;10.80;99.90;;;;;;5026494;28;20388;-56
2022/05/06 04:57:52;;;;;;;22.60;18.48;;;10.80;99.90;;;;;;5027982;28;20389;-54
2022/05/06 05:00:19;;;;;;;26.00;19.87;;;10.80;99.90;;;;;;5044999;28;20431;-57
2022/05/06 05:02:45;;;;;;;26.50;19.33;;;10.80;99.90;;;;;;5045203;28;20672;-56
2022/05/06 05:05:10;;;;;;;25.05;18.75;;;10.70;99.90;;;;;;5030951;28;20715;-57
2022/05/06 05:07:36;;;;;;;25.42;19.67;;;10.80;99.90;;;;;;5048320;28;20476;-57
2022/05/06 05:10:02;;;;;;;24.90;18.80;;;10.80;99.90;;;;;;5032674;28;20413;-57
2022/05/06 05:12:31;;;;;;;24.70;18.35;;;10.90;99.90;;;;;;5031646;28;20397;-57
2022/05/06 05:14:56;;;;;;;21.52;17.48;;;10.90;99.90;;;;;;5028451;28;20412;-55
2022/05/06 05:17:22;;;;;;;22.67;18.35;;;11.00;99.90;;;;;;5030152;28;20405;-57
2022/05/06 05:19:48;;;;;;;24.75;19.77;;;11.00;99.90;;;;;;5048712;28;20785;-57
2022/05/06 05:22:13;;;;;;;22.73;18.65;;;11.00;99.90;;;;;;5029923;28;20640;-57
2022/05/06 05:24:39;;;;;;;22.03;18.07;;;11.00;99.90;;;;;;5029626;28;20736;-57
2022/05/06 05:27:05;;;;;;;23.03;18.13;;;11.00;99.90;;;;;;5030399;28;20642;-57
2022/05/06 05:29:30;;;;;;;27.70;20.00;;;11.00;99.90;;;;;;5034031;28;20394;-55
2022/05/06 05:31:56;;;;;;;27.05;20.70;;;11.00;99.90;;;;;;5033512;28;20538;-57
2022/05/06 05:34:22;;;;;;;28.50;20.43;;;11.00;99.90;;;;;;5049814;28;20703;-59
2022/05/06 05:36:49;;;;;;;26.67;19.98;;;11.00;99.90;;;;;;5030726;28;20800;-57
2022/05/06 05:39:14;;;;;;;24.55;19.50;;;11.00;99.90;;;;;;5049396;28;20472;-56
2022/05/06 05:41:40;;;;;;;26.20;19.93;;;11.10;99.90;;;;;;5033272;28;20519;-55
2022/05/06 05:49:35;;;;;;;22.60;18.17;;;11.30;99.90;;;;;;5016535;28;20967;-53
2022/05/06 05:52:01;;;;;;;26.27;19.53;;;11.30;99.90;;;;;;5045987;28;20404;-55
2022/05/06 05:54:26;;;;;;;25.43;20.50;;;11.40;99.90;;;;;;5028266;28;20412;-54
2022/05/06 05:56:54;;;;;;;22.15;18.50;;;11.50;99.90;;;;;;5029623;28;20385;-56
2022/05/06 05:59:20;;;;;;;32.15;22.55;;;11.50;99.90;;;;;;5046014;28;20852;-54
2022/05/06 06:01:45;;;;;;;25.10;20.25;;;11.50;99.90;;;;;;5044313;28;20700;-57
2022/05/06 06:04:11;;;;;;;30.10;22.43;;;11.50;99.90;;;;;;5026577;28;20389;-55
2022/05/06 06:06:37;;;;;;;27.13;20.98;;;11.60;99.90;;;;;;5045147;28;20668;-57
2022/05/06 06:09:02;;;;;;;23.50;19.58;;;11.60;99.90;;;;;;5028098;28;20394;-56
2022/05/06 06:11:28;;;;;;;33.07;23.77;;;11.60;99.90;;;;;;5028343;28;20492;-57
2022/05/06 06:13:54;;;;;;;28.83;22.73;;;11.60;99.90;;;;;;5046053;28;20476;-57
2022/05/06 06:16:19;;;;;;;36.72;25.77;;;11.50;99.90;;;;;;5025263;28;20435;-58
2022/05/06 06:18:46;;;;;;;35.65;24.55;;;11.50;99.90;;;;;;5025071;28;20396;-58
2022/05/06 06:21:12;;;;;;;33.00;23.48;;;11.40;99.90;;;;;;5043206;28;20436;-56
2022/05/06 06:23:38;;;;;;;31.75;23.75;;;11.40;99.90;;;;;;5022226;28;20525;-58
2022/05/06 06:26:04;;;;;;;27.38;21.73;;;11.50;99.90;;;;;;5024306;28;20390;-58
2022/05/06 06:28:29;;;;;;;36.55;24.92;;;11.60;99.90;;;;;;5021899;28;20484;-57
2022/05/06 06:30:55;;;;;;;31.13;25.45;;;11.70;99.90;;;;;;5021058;28;20427;-58
2022/05/06 06:33:20;;;;;;;29.93;24.23;;;11.70;99.90;;;;;;5018204;28;20415;-56
2022/05/06 06:35:46;;;;;;;32.00;24.15;;;11.60;99.90;;;;;;5018910;28;20484;-57
2022/05/06 06:38:11;;;;;;;34.43;24.80;;;11.70;99.90;;;;;;5021147;28;20393;-56
2022/05/06 06:40:37;;;;;;;29.53;21.93;;;11.80;99.90;;;;;;5021099;28;20389;-57
2022/05/06 06:43:04;;;;;;;30.90;22.48;;;11.80;99.90;;;;;;5022477;28;20460;-56
2022/05/06 06:45:30;;;;;;;23.02;18.73;;;11.90;99.90;;;;;;5021568;28;20458;-55
2022/05/06 06:47:57;;;;;;;25.37;20.17;;;12.00;99.90;;;;;;5023425;28;20404;-57
2022/05/06 06:50:26;;;;;;;27.50;21.85;;;12.10;99.90;;;;;;5023094;28;20418;-58
2022/05/06 06:52:52;;;;;;;30.55;22.83;;;12.20;99.90;;;;;;5020308;28;20392;-56
2022/05/06 06:55:18;;;;;;;34.40;24.85;;;12.20;99.90;;;;;;5021085;28;20390;-58
2022/05/06 06:57:44;;;;;;;29.57;23.83;;;12.30;99.90;;;;;;5021477;28;20409;-57
2022/05/06 07:00:10;;;;;;;34.20;25.30;;;12.40;99.90;;;;;;5036783;28;20669;-58
2022/05/06 07:02:45;;;;;;;27.03;21.43;;;12.40;99.90;;;;;;5021590;28;20393;-58
2022/05/06 07:05:10;;;;;;;23.70;19.93;;;12.40;99.90;;;;;;5021275;28;20570;-55
2022/05/06 07:13:05;;;;;;;30.85;23.42;;;12.40;99.90;;;;;;5042783;28;20580;-56
2022/05/06 07:15:31;;;;;;;35.17;24.17;;;12.50;99.90;;;;;;5027491;28;20405;-53
2022/05/06 07:17:58;;;;;;;33.85;22.65;;;12.50;99.90;;;;;;5026128;28;20456;-53
2022/05/06 07:20:23;;;;;;;37.97;24.70;;;12.60;99.90;;;;;;5024673;28;20447;-56
2022/05/06 07:22:49;;;;;;;33.90;24.45;;;12.70;99.90;;;;;;5025872;28;20401;-57
2022/05/06 07:25:14;;;;;;;33.15;24.35;;;12.70;99.90;;;;;;5025177;28;20389;-55
2022/05/06 07:27:40;;;;;;;25.77;21.37;;;12.80;99.90;;;;;;5024509;28;20680;-55
2022/05/06 07:30:06;;;;;;;29.58;22.60;;;12.90;99.90;;;;;;5024416;28;20413;-56
2022/05/06 07:32:32;;;;;;;22.33;18.02;;;13.00;99.90;;;;;;5042025;28;20382;-59
2022/05/06 07:34:58;;;;;;;23.98;19.33;;;13.00;99.90;;;;;;5023867;28;20769;-57
2022/05/06 07:37:23;;;;;;;31.15;22.92;;;13.10;99.90;;;;;;5028716;28;20484;-56
2022/05/06 07:39:49;;;;;;;24.77;19.33;;;13.10;99.90;;;;;;5027246;28;20386;-57
2022/05/06 07:42:14;;;;;;;32.23;22.80;;;13.20;99.90;;;;;;5028603;28;20381;-57
2022/05/06 07:44:40;;;;;;;34.45;24.88;;;13.30;99.90;;;;;;5029419;28;20385;-55
2022/05/06 07:47:06;;;;;;;24.30;20.10;;;13.10;99.90;;;;;;5028217;28;20400;-55
2022/05/06 07:49:31;;;;;;;34.05;25.55;;;13.20;99.90;;;;;;5023259;28;20559;-57
2022/05/06 07:51:57;;;;;;;26.63;21.17;;;13.10;99.90;;;;;;5022599;28;20415;-57
2022/05/06 07:54:23;;;;;;;30.90;23.58;;;13.20;99.90;;;;;;5022217;28;20780;-55
2022/05/06 07:56:48;;;;;;;22.55;19.30;;;13.40;99.90;;;;;;5022074;28;20431;-57
2022/05/06 07:59:14;;;;;;;28.20;21.90;;;13.50;99.90;;;;;;5022818;28;20817;-54
2022/05/06 08:04:32;;;;;;;29.45;21.63;;;13.50;99.90;;;;;;5025253;28;20892;-57
2022/05/06 08:06:58;;;;;;;26.25;21.35;;;13.60;99.90;;;;;;5023242;28;20741;-56
2022/05/06 08:09:24;;;;;;;24.48;19.13;;;13.70;99.90;;;;;;5024343;28;20819;-56
2022/05/06 08:11:50;;;;;;;20.20;17.70;;;13.70;99.90;;;;;;5021910;28;20506;-55
2022/05/06 08:14:16;;;;;;;28.67;21.93;;;13.80;99.90;;;;;;5023712;28;20399;-57
2022/05/06 08:16:48;;;;;;;29.05;21.55;;;13.90;99.90;;;;;;5023107;28;20495;-57
2022/05/06 08:19:14;;;;;;;26.35;20.88;;;13.90;99.90;;;;;;5024244;28;20440;-56
2022/05/06 08:21:40;;;;;;;28.33;21.02;;;13.80;99.90;;;;;;5021447;28;20398;-55
2022/05/06 08:24:06;;;;;;;27.60;21.60;;;13.90;99.90;;;;;;5019480;28;20452;-57
2022/05/06 08:26:32;;;;;;;26.58;19.45;;;13.90;99.90;;;;;;5018561;28;20663;-57
2022/05/06 08:28:58;;;;;;;25.00;19.42;;;14.00;99.90;;;;;;5020439;28;20390;-55
2022/05/06 08:31:24;;;;;;;30.92;19.60;;;14.00;99.90;;;;;;5024963;28;20407;-56
2022/05/06 08:33:49;;;;;;;27.00;18.47;;;14.00;99.90;;;;;;5027586;28;20984;-57
2022/05/06 08:36:15;;;;;;;22.77;18.65;;;13.90;99.90;;;;;;5028005;28;20383;-55
2022/05/06 08:38:42;;;;;;;23.40;16.00;;;13.90;99.90;;;;;;5027860;28;20785;-55
2022/05/06 08:41:10;;;;;;;16.02;13.45;;;13.90;99.90;;;;;;5030736;28;20391;-56
2022/05/06 08:43:36;;;;;;;21.70;15.93;;;14.10;99.90;;;;;;5032148;28;20475;-55
2022/05/06 08:51:35;;;;;;;17.33;12.02;;;14.40;99.90;;;;;;5049127;28;20700;-62
2022/05/06 08:54:01;;;;;;;13.27;11.85;;;14.50;99.90;;;;;;5033581;28;20495;-61
2022/05/06 08:56:27;;;;;;;14.25;11.00;;;14.50;99.90;;;;;;5035825;28;20377;-61
2022/05/06 08:58:54;;;;;;;14.45;12.02;;;14.60;99.90;;;;;;5035493;28;20416;-62
2022/05/06 09:01:21;;;;;;;16.48;12.73;;;14.60;99.90;;;;;;5050031;28;20444;-61
2022/05/06 09:03:48;;;;;;;16.00;12.63;;;14.70;99.90;;;;;;5033445;28;20425;-60
2022/05/06 09:06:22;;;;;;;14.63;11.40;;;14.80;99.90;;;;;;5051467;28;20375;-61
2022/05/06 09:08:50;;;;;;;13.40;11.05;;;14.80;99.90;;;;;;5048952;28;20393;-62
2022/05/06 09:14:17;;;;;;;16.45;12.23;;;15.00;99.90;;;;;;5050590;28;20377;-56
2022/05/06 09:16:44;;;;;;;16.57;13.70;;;15.00;99.90;;;;;;5050483;28;20416;-57
2022/05/06 09:19:25;;;;;;;16.52;13.30;;;15.00;99.90;;;;;;5034360;28;20381;-56
2022/05/06 09:22:05;;;;;;;17.00;14.02;;;15.00;99.90;;;;;;5032094;28;20405;-55
2022/05/06 09:24:52;;;;;;;16.17;13.27;;;15.10;99.90;;;;;;5049963;28;20385;-56
2022/05/06 09:27:19;;;;;;;17.05;12.40;;;15.10;99.90;;;;;;5032466;28;20396;-55
2022/05/06 09:29:49;;;;;;;15.40;12.75;;;15.10;99.90;;;;;;5031503;28;20389;-55
2022/05/06 09:32:21;;;;;;;13.65;11.25;;;15.30;99.90;;;;;;5031668;28;20496;-56
2022/05/06 09:34:49;;;;;;;14.30;11.65;;;15.30;99.90;;;;;;5033140;28;20459;-57
2022/05/06 09:37:35;;;;;;;17.13;12.77;;;15.50;99.90;;;;;;5050963;28;20412;-55
2022/05/06 09:40:30;;;;;;;17.07;12.30;;;15.50;99.90;;;;;;5036376;28;20385;-56
2022/05/06 09:42:57;;;;;;;16.73;11.73;;;15.50;99.90;;;;;;5024630;28;20387;-56
2022/05/06 09:45:32;;;;;;;14.43;10.93;;;15.60;99.90;;;;;;5052721;28;20800;-56
2022/05/06 09:48:02;;;;;;;14.68;11.32;;;15.70;99.90;;;;;;5035348;28;20999;-57
2022/05/06 09:50:41;;;;;;;15.30;11.23;;;15.70;99.90;;;;;;5035991;28;20894;-57
2022/05/06 09:53:10;;;;;;;12.82;9.68;;;15.80;99.90;;;;;;5035361;28;20430;-55
2022/05/06 09:55:44;;;;;;;15.97;11.47;;;15.90;99.90;;;;;;5034648;28;21060;-55
2022/05/06 09:58:11;;;;;;;14.05;11.98;;;16.00;99.90;;;;;;5035696;28;20388;-56
2022/05/06 10:00:38;;;;;;;14.23;10.47;;;16.00;99.90;;;;;;5033564;28;20424;-56
2022/05/06 10:03:05;;;;;;;15.02;11.15;;;16.00;99.90;;;;;;5050855;28;20393;-56
2022/05/06 10:08:47;;;;;;;12.85;10.27;;;;;;;;;;5067322;28;20357;-56
2022/05/06 10:11:14;;;;;;;15.02;10.50;;;;;;;;;;5066427;28;20933;-57
2022/05/06 10:13:45;;;;;;;16.58;10.63;;;;;;;;;;5067750;28;20380;-55
2022/05/06 10:16:11;;;;;;;10.70;9.60;;;;;;;;;;5067016;28;20665;-54
2022/05/06 10:18:38;;;;;;;14.23;10.63;;;;;;;;;;5064031;28;20435;-54
2022/05/06 10:21:05;;;;;;;12.43;10.07;;;;;;;;;;5066298;28;20872;-56
2022/05/06 10:23:45;;;;;;;12.20;8.80;;;;;;;;;;5066767;28;20397;-55
2022/05/06 10:26:31;;;;;;;12.65;9.55;;;;;;;;;;5065631;28;20393;-55
2022/05/06 10:34:30;;;;;;;12.30;10.48;;;;;;;;;;5066158;28;20648;-57
2022/05/06 10:36:57;;;;;;;11.80;9.85;;;;;;;;;;5066035;28;20396;-55
2022/05/06 10:39:23;;;;;;;11.93;8.98;;;;;;;;;;5065287;28;20407;-56
2022/05/06 10:42:08;;;;;;;11.23;8.93;;;;;;;;;;5065064;28;20388;-56
2022/05/06 10:44:42;;;;;;;10.47;8.73;;;;;;;;;;5066482;28;20420;-57
2022/05/06 10:47:18;;;;;;;11.38;9.75;;;;;;;;;;5065134;28;20404;-55
2022/05/06 10:49:50;;;;;;;11.30;8.13;;;;;;;;;;5066911;28;20387;-53
2022/05/06 10:52:16;;;;;;;10.25;8.68;;;;;;;;;;5065326;28;20420;-55
2022/05/06 10:54:49;;;;;;;7.70;6.95;;;;;;;;;;5064760;28;20757;-56
2022/05/06 10:57:18;;;;;;;11.60;9.32;;;;;;;;;;5065080;28;20450;-55
2022/05/06 10:59:54;;;;;;;8.03;7.10;;;;;;;;;;5066202;28;20785;-56
2022/05/06 11:02:24;;;;;;;11.82;8.50;;;;;;;;;;5065551;28;20654;-57
2022/05/06 11:04:51;;;;;;;11.07;9.82;;;;;;;;;;5064740;28;20388;-57
2022/05/06 11:07:17;;;;;;;14.55;9.85;;;;;;;;;;5066649;28;20720;-53
2022/05/06 11:09:43;;;;;;;12.57;10.13;;;;;;;;;;5065716;28;20682;-55
2022/05/06 11:12:09;;;;;;;12.35;9.48;;;;;;;;;;5066595;28;20387;-55
2022/05/06 11:14:35;;;;;;;10.30;8.27;;;;;;;;;;5067523;28;20381;-54
2022/05/06 11:17:18;;;;;;;11.43;9.50;;;;;;;;;;5065422;28;20475;-56
2022/05/06 11:19:44;;;;;;;12.68;9.82;;;;;;;;;;5053071;28;20377;-57
2022/05/06 11:22:10;;;;;;;12.25;9.18;;;;;;;;;;5050465;28;20492;-55
2022/05/06 11:24:36;;;;;;;10.07;9.07;;;;;;;;;;5049646;28;20388;-56
2022/05/06 11:27:14;;;;;;;10.10;9.00;;;;;;;;;;5050036;28;20420;-52
2022/05/06 11:29:59;;;;;;;10.75;7.78;;;;;;;;;;5050645;28;20507;-57
2022/05/06 11:32:29;;;;;;;13.98;10.48;;;;;;;;;;5050402;28;20770;-55
2022/05/06 11:34:59;;;;;;;9.02;8.07;;;;;;;;;;5048581;28;21014;-56
2022/05/06 11:37:27;;;;;;;9.82;7.65;;;;;;;;;;5048771;28;20491;-56
2022/05/06 11:40:18;;;;;;;12.82;9.15;;;;;;;;;;5049321;28;20393;-51
2022/05/06 11:42:40;;;;;;;11.27;8.23;;;;;;;;;;5050024;28;21158;-56
2022/05/06 11:47:51;;;;;;;10.13;7.43;;;;;;;;;;5047428;28;20615;-54
2022/05/06 11:50:17;;;;;;;14.73;6.97;;;;;;;;;;5048257;28;20481;-57
2022/05/06 11:52:44;;;;;;;9.13;6.90;;;;;;;;;;5050072;28;20488;-55
2022/05/06 11:55:10;;;;;;;10.38;7.63;;;;;;;;;;5049187;28;20381;-57
2022/05/06 11:57:37;;;;;;;11.45;7.65;;;;;;;;;;5049828;28;20373;-57
2022/05/06 12:00:07;;;;;;;11.35;7.40;;;;;;;;;;5048729;28;20400;-56
2022/05/06 12:02:33;;;;;;;10.50;6.78;;;;;;;;;;5047779;28;20465;-57
2022/05/06 12:04:59;;;;;;;7.55;6.43;;;;;;;;;;5048936;28;20454;-57
2022/05/06 12:07:44;;;;;;;9.38;7.38;;;;;;;;;;5052566;28;20433;-57
2022/05/06 12:10:11;;;;;;;10.37;7.27;;;;;;;;;;5052525;28;20390;-57
2022/05/06 12:12:53;;;;;;;6.73;5.67;;;;;;;;;;5052502;28;20382;-55
2022/05/06 12:15:20;;;;;;;8.57;6.82;;;;;;;;;;5052958;28;20801;-52
2022/05/06 12:17:46;;;;;;;8.95;6.38;;;;;;;;;;5053486;28;20956;-53
2022/05/06 12:20:31;;;;;;;10.13;6.05;;;;;;;;;;5052681;28;20373;-53
2022/05/06 12:22:59;;;;;;;7.70;6.32;;;;;;;;;;5050164;28;20400;-53
2022/05/06 12:25:26;;;;;;;7.70;6.60;;;;;;;;;;5051296;28;20941;-57
2022/05/06 12:28:04;;;;;;;10.13;7.00;;;;;;;;;;5051543;28;20529;-58
2022/05/06 12:30:31;;;;;;;8.25;5.90;;;;;;;;;;5051374;28;20993;-57
2022/05/06 12:33:11;;;;;;;7.32;5.82;;;;;;;;;;5051247;28;20468;-58
2022/05/06 12:35:56;;;;;;;7.80;5.57;;;;;;;;;;5047499;28;20821;-52
2022/05/06 12:38:23;;;;;;;7.05;5.30;;;;;;;;;;5048812;28;20386;-55
2022/05/06 12:40:52;;;;;;;6.90;5.65;;;;;;;;;;5048614;28;20456;-54
2022/05/06 12:43:25;;;;;;;5.97;4.57;;;;;;;;;;5047498;28;20374;-57
2022/05/06 12:45:53;;;;;;;10.25;5.55;;;;;;;;;;5051013;28;20412;-57
2022/05/06 12:51:04;;;;;;;9.90;5.30;;;;;;;;;;5048846;28;20704;-58
2022/05/06 12:53:30;;;;;;;7.35;4.70;;;;;;;;;;5041535;28;20401;-58
2022/05/06 12:55:56;;;;;;;4.82;4.18;;;;;;;;;;5039228;28;20389;-56
2022/05/06 12:58:27;;;;;;;4.47;3.78;;;;;;;;;;5038550;28;20389;-57
2022/05/06 13:00:53;;;;;;;5.00;3.45;;;;;;;;;;5040266;28;20385;-58
2022/05/06 13:03:19;;;;;;;3.85;2.97;;;;;;;;;;5040699;28;20389;-57
2022/05/06 13:05:46;;;;;;;4.63;3.97;;;;;;;;;;5040325;28;20466;-57
2022/05/06 13:08:12;;;;;;;4.60;4.15;;;;;;;;;;5040584;28;20433;-58
2022/05/06 13:10:37;;;;;;;4.65;3.72;;;;;;;;;;5043744;28;20451;-58
2022/05/06 13:13:04;;;;;;;7.93;4.10;;;;;;;;;;5044640;28;20452;-54
2022/05/06 13:15:30;;;;;;;7.00;3.90;;;;;;;;;;5043073;28;20427;-55
2022/05/06 13:17:56;;;;;;;6.03;3.00;;;;;;;;;;5046755;28;20381;-58
2022/05/06 13:20:22;;;;;;;4.80;3.00;;;;;;;;;;5045384;28;20386;-56
2022/05/06 13:22:48;;;;;;;3.80;2.77;;;;;;;;;;5043570;28;20405;-55
2022/05/06 13:25:14;;;;;;;4.20;2.42;;;;;;;;;;5045009;28;20476;-57
2022/05/06 13:27:40;;;;;;;3.70;2.50;;;;;;;;;;5044561;28;20413;-56
2022/05/06 13:30:06;;;;;;;4.00;2.92;;;;;;;;;;5042650;28;20374;-56
2022/05/06 13:32:34;;;;;;;5.20;3.60;;;;;;;;;;5042402;28;20386;-57
2022/05/06 13:35:00;;;;;;;4.93;3.38;;;;;;;;;;5039907;28;20683;-52
2022/05/06 13:37:26;;;;;;;5.18;3.53;;;;;;;;;;5041330;28;20757;-57
2022/05/06 13:39:52;;;;;;;5.10;3.25;;;;;;;;;;5041611;28;20393;-58
2022/05/06 13:42:18;;;;;;;2.72;2.30;;;;;;;;;;5040781;28;20377;-58
2022/05/06 13:44:45;;;;;;;3.58;2.80;;;;;;;;;;5043884;28;20373;-56
2022/05/06 13:47:11;;;;;;;4.57;3.47;;;;;;;;;;5046707;28;20401;-58
2022/05/06 13:49:37;;;;;;;4.03;3.00;;;;;;;;;;5049805;28;20439;-56
2022/05/06 13:52:03;;;;;;;7.43;3.70;;;;;;;;;;5050099;28;20412;-58